sensor_id;sensor_type;location;lat;lon;timestamp;pressure;altitude;pressure_sealevel;temperature;humidity
23574;BME280;11965;53.640;10.050;2023-04-21T00:02:23;101963.94;;;6.35;100.00
23574;BME280;11965;53.640;10.050;2023-04-21T00:04:51;101966.72;;;6.45;100.00
23574;BME280;11965;53.640;10.050;2023-04-21T00:07:20;101954.81;;;6.45;100.00
23574;BME280;11965;53.640;10.050;2023-04-21T00:09:47;101957.56;;;6.45;100.00
23574;BME280;11965;53.640;10.050;2023-04-21T00:12:14;101964.50;;;6.39;100.00
23574;BME280;11965;53.640;10.050;2023-04-21T00:14:41;101950.44;;;6.42;100.00
23574;BME280;11965;53.640;10.050;2023-04-21T00:17:08;101954.50;;;6.38;100.00
23574;BME280;11965;53.640;10.050;2023-04-21T00:19:36;101951.31;;;6.33;100.00
23574;BME280;11965;53.640;10.050;2023-04-21T00:22:03;101945.22;;;6.39;100.00
23574;BME280;11965;53.640;10.050;2023-04-21T00:24:32;101939.88;;;6.37;100.00
23574;BME280;11965;53.640;10.050;2023-04-21T00:26:59;101945.97;;;6.41;100.00
23574;BME280;11965;53.640;10.050;2023-04-21T00:29:28;101938.84;;;6.38;100.00
23574;BME280;11965;53.640;10.050;2023-04-21T00:31:55;101940.88;;;6.36;100.00
23574;BME280;11965;53.640;10.050;2023-04-21T00:34:22;101946.84;;;6.41;100.00
23574;BME280;11965;53.640;10.050;2023-04-21T00:36:52;101938.72;;;6.40;100.00
23574;BME280;11965;53.640;10.050;2023-04-21T00:39:19;101936.97;;;6.39;100.00
23574;BME280;11965;53.640;10.050;2023-04-21T00:41:46;101940.00;;;6.36;100.00
23574;BME280;11965;53.640;10.050;2023-04-21T00:44:13;101939.28;;;6.34;100.00
23574;BME280;11965;53.640;10.050;2023-04-21T00:46:39;101941.47;;;6.40;100.00
23574;BME280;11965;53.640;10.050;2023-04-21T00:49:08;101929.59;;;6.39;100.00
23574;BME280;11965;53.640;10.050;2023-04-21T00:51:36;101935.06;;;6.30;100.00
23574;BME280;11965;53.640;10.050;2023-04-21T00:54:06;101928.81;;;6.28;100.00
23574;BME280;11965;53.640;10.050;2023-04-21T00:56:34;101930.47;;;6.40;100.00
23574;BME280;11965;53.640;10.050;2023-04-21T00:59:02;101933.06;;;6.32;100.00
23574;BME280;11965;53.640;10.050;2023-04-21T01:01:30;101936.25;;;6.37;100.00
23574;BME280;11965;53.640;10.050;2023-04-21T01:03:59;101930.16;;;6.33;100.00
23574;BME280;11965;53.640;10.050;2023-04-21T01:06:27;101925.81;;;6.40;100.00
23574;BME280;11965;53.640;10.050;2023-04-21T01:08:55;101925.25;;;6.37;100.00
23574;BME280;11965;53.640;10.050;2023-04-21T01:11:24;101919.28;;;6.32;100.00
23574;BME280;11965;53.640;10.050;2023-04-21T01:13:51;101920.56;;;6.28;100.00
23574;BME280;11965;53.640;10.050;2023-04-21T01:16:19;101921.53;;;6.17;100.00
23574;BME280;11965;53.640;10.050;2023-04-21T01:18:47;101924.34;;;6.27;100.00
23574;BME280;11965;53.640;10.050;2023-04-21T01:21:15;101918.84;;;6.27;100.00
23574;BME280;11965;53.640;10.050;2023-04-21T01:23:43;101914.75;;;6.21;100.00
23574;BME280;11965;53.640;10.050;2023-04-21T01:26:11;101913.28;;;6.17;100.00
23574;BME280;11965;53.640;10.050;2023-04-21T01:28:38;101920.00;;;6.24;100.00
23574;BME280;11965;53.640;10.050;2023-04-21T01:31:05;101916.94;;;6.27;100.00
23574;BME280;11965;53.640;10.050;2023-04-21T01:33:32;101921.03;;;6.33;100.00
23574;BME280;11965;53.640;10.050;2023-04-21T01:35:59;101915.09;;;6.37;100.00
23574;BME280;11965;53.640;10.050;2023-04-21T01:38:26;101917.53;;;6.31;100.00
23574;BME280;11965;53.640;10.050;2023-04-21T01:40:55;101904.91;;;6.28;100.00
23574;BME280;11965;53.640;10.050;2023-04-21T01:43:23;101907.94;;;6.25;100.00
23574;BME280;11965;53.640;10.050;2023-04-21T01:45:51;101914.31;;;6.26;100.00
23574;BME280;11965;53.640;10.050;2023-04-21T01:48:18;101914.88;;;6.19;100.00
23574;BME280;11965;53.640;10.050;2023-04-21T01:50:45;101916.91;;;6.17;100.00
23574;BME280;11965;53.640;10.050;2023-04-21T01:53:12;101906.63;;;6.19;100.00
23574;BME280;11965;53.640;10.050;2023-04-21T01:55:40;101905.59;;;6.20;100.00
23574;BME280;11965;53.640;10.050;2023-04-21T01:58:09;101916.50;;;6.22;100.00
23574;BME280;11965;53.640;10.050;2023-04-21T02:00:36;101916.78;;;6.19;100.00
23574;BME280;11965;53.640;10.050;2023-04-21T02:03:04;101907.09;;;6.25;100.00
23574;BME280;11965;53.640;10.050;2023-04-21T02:05:30;101908.53;;;6.19;100.00
23574;BME280;11965;53.640;10.050;2023-04-21T02:07:57;101904.91;;;6.18;100.00
23574;BME280;11965;53.640;10.050;2023-04-21T02:10:24;101903.31;;;6.26;100.00
23574;BME280;11965;53.640;10.050;2023-04-21T02:12:51;101902.72;;;6.22;100.00
23574;BME280;11965;53.640;10.050;2023-04-21T02:15:19;101903.28;;;6.16;100.00
23574;BME280;11965;53.640;10.050;2023-04-21T02:17:46;101908.97;;;6.24;100.00
23574;BME280;11965;53.640;10.050;2023-04-21T02:20:14;101898.66;;;6.16;100.00
23574;BME280;11965;53.640;10.050;2023-04-21T02:22:40;101901.00;;;6.21;100.00
23574;BME280;11965;53.640;10.050;2023-04-21T02:25:08;101891.25;;;6.17;100.00
23574;BME280;11965;53.640;10.050;2023-04-21T02:27:35;101890.56;;;6.25;100.00
23574;BME280;11965;53.640;10.050;2023-04-21T02:30:03;101897.81;;;6.26;100.00
23574;BME280;11965;53.640;10.050;2023-04-21T02:32:31;101892.91;;;6.29;100.00
23574;BME280;11965;53.640;10.050;2023-04-21T02:34:58;101886.09;;;6.24;100.00
23574;BME280;11965;53.640;10.050;2023-04-21T02:37:25;101891.31;;;6.27;100.00
23574;BME280;11965;53.640;10.050;2023-04-21T02:39:52;101891.88;;;6.30;100.00
23574;BME280;11965;53.640;10.050;2023-04-21T02:42:19;101895.50;;;6.31;100.00
23574;BME280;11965;53.640;10.050;2023-04-21T02:44:47;101888.97;;;6.22;100.00
23574;BME280;11965;53.640;10.050;2023-04-21T02:47:14;101888.50;;;6.17;100.00
23574;BME280;11965;53.640;10.050;2023-04-21T02:49:43;101880.84;;;6.20;100.00
23574;BME280;11965;53.640;10.050;2023-04-21T02:52:11;101880.13;;;6.18;100.00
23574;BME280;11965;53.640;10.050;2023-04-21T02:54:38;101879.97;;;6.20;100.00
23574;BME280;11965;53.640;10.050;2023-04-21T02:57:05;101881.56;;;6.23;100.00
23574;BME280;11965;53.640;10.050;2023-04-21T02:59:32;101887.81;;;6.25;100.00
23574;BME280;11965;53.640;10.050;2023-04-21T03:01:59;101881.44;;;6.24;100.00
23574;BME280;11965;53.640;10.050;2023-04-21T03:04:26;101882.91;;;6.38;100.00
23574;BME280;11965;53.640;10.050;2023-04-21T03:06:54;101880.59;;;6.33;100.00
23574;BME280;11965;53.640;10.050;2023-04-21T03:09:22;101879.72;;;6.33;100.00
23574;BME280;11965;53.640;10.050;2023-04-21T03:11:49;101869.28;;;6.27;100.00
23574;BME280;11965;53.640;10.050;2023-04-21T03:14:17;101878.41;;;6.27;100.00
23574;BME280;11965;53.640;10.050;2023-04-21T03:16:44;101887.41;;;6.29;100.00
23574;BME280;11965;53.640;10.050;2023-04-21T03:19:11;101879.84;;;6.31;100.00
23574;BME280;11965;53.640;10.050;2023-04-21T03:21:38;101881.44;;;6.24;100.00
23574;BME280;11965;53.640;10.050;2023-04-21T03:24:07;101879.84;;;6.22;100.00
23574;BME280;11965;53.640;10.050;2023-04-21T03:26:34;101878.06;;;6.20;100.00
23574;BME280;11965;53.640;10.050;2023-04-21T03:29:01;101871.13;;;6.16;100.00
23574;BME280;11965;53.640;10.050;2023-04-21T03:31:28;101872.41;;;6.12;100.00
23574;BME280;11965;53.640;10.050;2023-04-21T03:33:55;101878.38;;;6.17;100.00
23574;BME280;11965;53.640;10.050;2023-04-21T03:36:23;101879.38;;;6.16;100.00
23574;BME280;11965;53.640;10.050;2023-04-21T03:38:49;101881.00;;;6.19;100.00
23574;BME280;11965;53.640;10.050;2023-04-21T03:41:18;101877.38;;;6.18;100.00
23574;BME280;11965;53.640;10.050;2023-04-21T03:43:45;101876.06;;;6.13;100.00
23574;BME280;11965;53.640;10.050;2023-04-21T03:46:18;101872.72;;;6.19;100.00
23574;BME280;11965;53.640;10.050;2023-04-21T03:48:45;101876.59;;;6.07;100.00
23574;BME280;11965;53.640;10.050;2023-04-21T03:51:12;101878.47;;;6.06;100.00
23574;BME280;11965;53.640;10.050;2023-04-21T03:53:39;101881.56;;;6.13;100.00
23574;BME280;11965;53.640;10.050;2023-04-21T03:56:07;101884.78;;;6.18;100.00
23574;BME280;11965;53.640;10.050;2023-04-21T03:58:36;101883.88;;;6.08;100.00
23574;BME280;11965;53.640;10.050;2023-04-21T04:01:04;101873.72;;;6.08;100.00
23574;BME280;11965;53.640;10.050;2023-04-21T04:03:32;101873.03;;;6.26;100.00
23574;BME280;11965;53.640;10.050;2023-04-21T04:05:59;101872.44;;;6.22;100.00
23574;BME280;11965;53.640;10.050;2023-04-21T04:08:28;101877.78;;;6.14;100.00
23574;BME280;11965;53.640;10.050;2023-04-21T04:10:55;101873.03;;;6.16;100.00
23574;BME280;11965;53.640;10.050;2023-04-21T04:13:22;101873.03;;;6.16;100.00
23574;BME280;11965;53.640;10.050;2023-04-21T04:15:52;101866.31;;;6.09;100.00
23574;BME280;11965;53.640;10.050;2023-04-21T04:18:19;101869.25;;;6.07;100.00
23574;BME280;11965;53.640;10.050;2023-04-21T04:20:46;101866.03;;;6.12;100.00
23574;BME280;11965;53.640;10.050;2023-04-21T04:23:13;101868.34;;;6.07;100.00
23574;BME280;11965;53.640;10.050;2023-04-21T04:25:40;101863.75;;;6.17;100.00
23574;BME280;11965;53.640;10.050;2023-04-21T04:28:07;101861.41;;;6.12;100.00
23574;BME280;11965;53.640;10.050;2023-04-21T04:30:35;101868.09;;;6.19;100.00
23574;BME280;11965;53.640;10.050;2023-04-21T04:33:03;101865.75;;;6.15;100.00
23574;BME280;11965;53.640;10.050;2023-04-21T04:35:30;101867.34;;;6.17;100.00
23574;BME280;11965;53.640;10.050;2023-04-21T04:37:57;101864.88;;;6.14;100.00
23574;BME280;11965;53.640;10.050;2023-04-21T04:40:24;101862.88;;;6.16;100.00
23574;BME280;11965;53.640;10.050;2023-04-21T04:42:51;101863.31;;;6.22;100.00
23574;BME280;11965;53.640;10.050;2023-04-21T04:45:19;101857.97;;;6.30;100.00
23574;BME280;11965;53.640;10.050;2023-04-21T04:47:48;101859.13;;;6.27;100.00
23574;BME280;11965;53.640;10.050;2023-04-21T04:50:16;101863.31;;;6.31;100.00
23574;BME280;11965;53.640;10.050;2023-04-21T04:52:43;101864.66;;;6.37;100.00
23574;BME280;11965;53.640;10.050;2023-04-21T04:55:12;101871.91;;;6.38;100.00
23574;BME280;11965;53.640;10.050;2023-04-21T04:57:39;101869.72;;;6.41;100.00
23574;BME280;11965;53.640;10.050;2023-04-21T05:00:08;101869.88;;;6.40;100.00
23574;BME280;11965;53.640;10.050;2023-04-21T05:02:36;101858.72;;;6.41;100.00
23574;BME280;11965;53.640;10.050;2023-04-21T05:05:04;101865.69;;;6.55;100.00
23574;BME280;11965;53.640;10.050;2023-04-21T05:07:33;101870.63;;;6.61;100.00
23574;BME280;11965;53.640;10.050;2023-04-21T05:10:00;101871.91;;;6.57;100.00
23574;BME280;11965;53.640;10.050;2023-04-21T05:12:29;101872.06;;;6.66;100.00
23574;BME280;11965;53.640;10.050;2023-04-21T05:14:56;101872.53;;;6.61;100.00
23574;BME280;11965;53.640;10.050;2023-04-21T05:17:23;101875.28;;;6.61;100.00
23574;BME280;11965;53.640;10.050;2023-04-21T05:19:50;101887.88;;;6.63;100.00
23574;BME280;11965;53.640;10.050;2023-04-21T05:22:17;101878.88;;;6.71;100.00
23574;BME280;11965;53.640;10.050;2023-04-21T05:24:45;101879.78;;;6.72;100.00
23574;BME280;11965;53.640;10.050;2023-04-21T05:27:12;101872.22;;;6.74;100.00
23574;BME280;11965;53.640;10.050;2023-04-21T05:29:39;101875.25;;;6.90;100.00
23574;BME280;11965;53.640;10.050;2023-04-21T05:32:06;101871.66;;;6.99;100.00
23574;BME280;11965;53.640;10.050;2023-04-21T05:34:33;101873.53;;;6.99;100.00
23574;BME280;11965;53.640;10.050;2023-04-21T05:37:00;101868.13;;;7.17;100.00
23574;BME280;11965;53.640;10.050;2023-04-21T05:39:27;101865.66;;;7.23;100.00
23574;BME280;11965;53.640;10.050;2023-04-21T05:41:56;101861.31;;;7.21;100.00
23574;BME280;11965;53.640;10.050;2023-04-21T05:44:22;101865.19;;;7.28;100.00
23574;BME280;11965;53.640;10.050;2023-04-21T05:46:50;101858.38;;;7.42;99.93
23574;BME280;11965;53.640;10.050;2023-04-21T05:49:17;101873.16;;;7.50;98.11
23574;BME280;11965;53.640;10.050;2023-04-21T05:51:43;101858.13;;;7.63;96.90
23574;BME280;11965;53.640;10.050;2023-04-21T05:54:10;101860.16;;;7.70;94.58
23574;BME280;11965;53.640;10.050;2023-04-21T05:56:37;101866.09;;;7.75;96.38
23574;BME280;11965;53.640;10.050;2023-04-21T05:59:05;101873.19;;;7.78;96.48
23574;BME280;11965;53.640;10.050;2023-04-21T06:01:32;101861.44;;;7.76;95.59
23574;BME280;11965;53.640;10.050;2023-04-21T06:03:59;101877.31;;;8.02;91.99
23574;BME280;11965;53.640;10.050;2023-04-21T06:06:26;101872.50;;;8.04;93.56
23574;BME280;11965;53.640;10.050;2023-04-21T06:08:53;101868.72;;;8.05;93.20
23574;BME280;11965;53.640;10.050;2023-04-21T06:11:20;101876.97;;;8.14;93.51
23574;BME280;11965;53.640;10.050;2023-04-21T06:13:48;101872.81;;;8.28;90.87
23574;BME280;11965;53.640;10.050;2023-04-21T06:16:18;101868.69;;;8.42;90.32
23574;BME280;11965;53.640;10.050;2023-04-21T06:18:45;101860.06;;;8.45;89.71
23574;BME280;11965;53.640;10.050;2023-04-21T06:21:12;101865.59;;;8.45;92.33
23574;BME280;11965;53.640;10.050;2023-04-21T06:23:39;101865.38;;;8.56;90.40
23574;BME280;11965;53.640;10.050;2023-04-21T06:26:07;101868.22;;;8.65;90.73
23574;BME280;11965;53.640;10.050;2023-04-21T06:28:35;101865.94;;;8.78;88.80
23574;BME280;11965;53.640;10.050;2023-04-21T06:31:03;101858.09;;;8.91;87.79
23574;BME280;11965;53.640;10.050;2023-04-21T06:33:32;101864.56;;;9.00;85.19
23574;BME280;11965;53.640;10.050;2023-04-21T06:35:59;101862.50;;;9.02;88.10
23574;BME280;11965;53.640;10.050;2023-04-21T06:38:26;101858.47;;;9.14;85.00
23574;BME280;11965;53.640;10.050;2023-04-21T06:40:53;101861.13;;;9.24;85.16
23574;BME280;11965;53.640;10.050;2023-04-21T06:43:20;101867.28;;;9.36;83.37
23574;BME280;11965;53.640;10.050;2023-04-21T06:45:47;101860.63;;;9.46;80.72
23574;BME280;11965;53.640;10.050;2023-04-21T06:48:14;101847.94;;;9.62;80.82
23574;BME280;11965;53.640;10.050;2023-04-21T06:50:42;101848.78;;;9.62;81.94
23574;BME280;11965;53.640;10.050;2023-04-21T06:53:11;101843.81;;;9.74;81.08
23574;BME280;11965;53.640;10.050;2023-04-21T06:55:37;101846.81;;;9.81;79.76
23574;BME280;11965;53.640;10.050;2023-04-21T06:58:04;101846.81;;;9.81;79.63
23574;BME280;11965;53.640;10.050;2023-04-21T07:00:31;101844.25;;;9.87;78.31
23574;BME280;11965;53.640;10.050;2023-04-21T07:02:58;101841.47;;;9.87;79.63
23574;BME280;11965;53.640;10.050;2023-04-21T07:05:25;101847.75;;;9.98;80.32
23574;BME280;11965;53.640;10.050;2023-04-21T07:07:54;101841.56;;;10.12;77.51
23574;BME280;11965;53.640;10.050;2023-04-21T07:10:24;101838.53;;;10.31;76.46
23574;BME280;11965;53.640;10.050;2023-04-21T07:12:51;101835.28;;;10.36;76.65
23574;BME280;11965;53.640;10.050;2023-04-21T07:15:18;101834.63;;;10.58;73.03
23574;BME280;11965;53.640;10.050;2023-04-21T07:17:45;101828.75;;;10.61;74.35
23574;BME280;11965;53.640;10.050;2023-04-21T07:20:12;101840.50;;;10.64;75.37
23574;BME280;11965;53.640;10.050;2023-04-21T07:22:39;101834.84;;;10.81;71.94
23574;BME280;11965;53.640;10.050;2023-04-21T07:25:09;101835.88;;;10.89;72.86
23574;BME280;11965;53.640;10.050;2023-04-21T07:27:37;101835.19;;;10.87;73.61
23574;BME280;11965;53.640;10.050;2023-04-21T07:30:05;101826.69;;;11.13;70.79
23574;BME280;11965;53.640;10.050;2023-04-21T07:32:32;101827.72;;;11.12;71.60
23574;BME280;11965;53.640;10.050;2023-04-21T07:34:59;101826.50;;;11.22;72.87
23574;BME280;11965;53.640;10.050;2023-04-21T07:37:27;101820.25;;;11.28;71.59
23574;BME280;11965;53.640;10.050;2023-04-21T07:39:54;101819.72;;;11.33;69.03
23574;BME280;11965;53.640;10.050;2023-04-21T07:42:23;101825.44;;;11.48;69.88
23574;BME280;11965;53.640;10.050;2023-04-21T07:44:51;101828.88;;;11.58;66.80
23574;BME280;11965;53.640;10.050;2023-04-21T07:47:19;101823.84;;;11.54;69.16
23574;BME280;11965;53.640;10.050;2023-04-21T07:49:46;101808.03;;;11.62;69.28
23574;BME280;11965;53.640;10.050;2023-04-21T07:52:13;101817.69;;;11.83;68.55
23574;BME280;11965;53.640;10.050;2023-04-21T07:54:40;101804.28;;;11.94;66.58
23574;BME280;11965;53.640;10.050;2023-04-21T07:57:07;101822.97;;;12.09;66.90
23574;BME280;11965;53.640;10.050;2023-04-21T07:59:35;101806.47;;;12.15;64.15
23574;BME280;11965;53.640;10.050;2023-04-21T08:02:02;101810.78;;;12.49;63.56
23574;BME280;11965;53.640;10.050;2023-04-21T08:04:30;101815.09;;;12.52;65.71
23574;BME280;11965;53.640;10.050;2023-04-21T08:06:57;101798.78;;;12.49;64.18
23574;BME280;11965;53.640;10.050;2023-04-21T08:09:24;101801.81;;;12.62;63.53
23574;BME280;11965;53.640;10.050;2023-04-21T08:11:51;101815.00;;;12.68;63.27
23574;BME280;11965;53.640;10.050;2023-04-21T08:14:18;101803.97;;;12.75;65.68
23574;BME280;11965;53.640;10.050;2023-04-21T08:16:47;101813.81;;;12.86;62.53
23574;BME280;11965;53.640;10.050;2023-04-21T08:19:13;101811.03;;;12.86;63.14
23574;BME280;11965;53.640;10.050;2023-04-21T08:21:40;101809.09;;;12.86;62.02
23574;BME280;11965;53.640;10.050;2023-04-21T08:24:07;101797.59;;;12.89;66.00
23574;BME280;11965;53.640;10.050;2023-04-21T08:26:34;101801.13;;;13.06;61.75
23574;BME280;11965;53.640;10.050;2023-04-21T08:29:01;101804.25;;;13.26;66.28
23574;BME280;11965;53.640;10.050;2023-04-21T08:31:30;101796.50;;;13.36;63.26
23574;BME280;11965;53.640;10.050;2023-04-21T08:33:58;101793.38;;;13.54;59.97
23574;BME280;11965;53.640;10.050;2023-04-21T08:36:26;101790.06;;;13.51;60.95
23574;BME280;11965;53.640;10.050;2023-04-21T08:38:53;101776.06;;;13.59;60.74
23574;BME280;11965;53.640;10.050;2023-04-21T08:41:20;101786.53;;;13.57;59.01
23574;BME280;11965;53.640;10.050;2023-04-21T08:43:48;101788.06;;;13.74;60.76
23574;BME280;11965;53.640;10.050;2023-04-21T08:46:15;101785.00;;;13.84;60.28
23574;BME280;11965;53.640;10.050;2023-04-21T08:48:42;101775.47;;;13.93;60.52
23574;BME280;11965;53.640;10.050;2023-04-21T08:51:15;101781.19;;;14.21;59.85
23574;BME280;11965;53.640;10.050;2023-04-21T08:53:44;101775.16;;;14.54;59.31
23574;BME280;11965;53.640;10.050;2023-04-21T08:56:11;101777.47;;;14.72;61.28
23574;BME280;11965;53.640;10.050;2023-04-21T08:58:38;101775.16;;;14.75;58.98
23574;BME280;11965;53.640;10.050;2023-04-21T09:01:06;101781.00;;;14.80;57.90
23574;BME280;11965;53.640;10.050;2023-04-21T09:03:33;101774.88;;;14.92;53.83
23574;BME280;11965;53.640;10.050;2023-04-21T09:06:01;101771.50;;;14.96;53.66
23574;BME280;11965;53.640;10.050;2023-04-21T09:08:31;101774.50;;;15.01;55.86
23574;BME280;11965;53.640;10.050;2023-04-21T09:10:59;101762.59;;;15.14;57.91
23574;BME280;11965;53.640;10.050;2023-04-21T09:13:32;101765.34;;;15.36;55.93
23574;BME280;11965;53.640;10.050;2023-04-21T09:16:01;101772.84;;;15.29;55.66
23574;BME280;11965;53.640;10.050;2023-04-21T09:18:30;101780.22;;;15.43;58.21
23574;BME280;11965;53.640;10.050;2023-04-21T09:21:06;101771.69;;;15.51;54.01
23574;BME280;11965;53.640;10.050;2023-04-21T09:23:47;101767.13;;;15.72;57.09
23574;BME280;11965;53.640;10.050;2023-04-21T09:26:15;101761.34;;;15.80;50.00
23574;BME280;11965;53.640;10.050;2023-04-21T09:28:43;101763.28;;;15.79;52.38
23574;BME280;11965;53.640;10.050;2023-04-21T09:31:15;101758.75;;;15.78;51.71
23574;BME280;11965;53.640;10.050;2023-04-21T09:33:47;101766.06;;;15.79;50.37
23574;BME280;11965;53.640;10.050;2023-04-21T09:36:18;101769.91;;;15.72;53.05
23574;BME280;11965;53.640;10.050;2023-04-21T09:38:54;101764.06;;;15.66;50.71
23574;BME280;11965;53.640;10.050;2023-04-21T09:41:22;101762.03;;;15.88;50.42
23574;BME280;11965;53.640;10.050;2023-04-21T09:43:50;101759.91;;;15.90;51.50
23574;BME280;11965;53.640;10.050;2023-04-21T09:46:18;101762.91;;;15.89;48.81
23574;BME280;11965;53.640;10.050;2023-04-21T09:48:46;101744.22;;;15.96;49.40
23574;BME280;11965;53.640;10.050;2023-04-21T09:51:15;101754.31;;;15.90;50.55
23574;BME280;11965;53.640;10.050;2023-04-21T09:53:44;101749.19;;;16.01;51.80
23574;BME280;11965;53.640;10.050;2023-04-21T09:56:15;101741.25;;;16.11;52.82
23574;BME280;11965;53.640;10.050;2023-04-21T09:58:46;101740.41;;;16.17;49.84
23574;BME280;11965;53.640;10.050;2023-04-21T10:01:14;101738.06;;;16.21;50.44
23574;BME280;11965;53.640;10.050;2023-04-21T10:03:43;101732.47;;;16.27;49.57
23574;BME280;11965;53.640;10.050;2023-04-21T10:06:11;101738.53;;;16.38;50.12
23574;BME280;11965;53.640;10.050;2023-04-21T10:08:38;101729.72;;;16.41;48.42
23574;BME280;11965;53.640;10.050;2023-04-21T10:11:07;101727.56;;;16.49;49.50
23574;BME280;11965;53.640;10.050;2023-04-21T10:13:37;101720.72;;;16.65;52.23
23574;BME280;11965;53.640;10.050;2023-04-21T10:16:07;101713.22;;;16.86;49.40
23574;BME280;11965;53.640;10.050;2023-04-21T10:18:35;101712.78;;;17.02;49.11
23574;BME280;11965;53.640;10.050;2023-04-21T10:21:06;101713.44;;;17.04;48.69
23574;BME280;11965;53.640;10.050;2023-04-21T10:23:38;101713.44;;;17.04;48.61
23574;BME280;11965;53.640;10.050;2023-04-21T10:26:08;101706.75;;;17.18;48.21
23574;BME280;11965;53.640;10.050;2023-04-21T10:28:43;101703.75;;;17.07;48.25
23574;BME280;11965;53.640;10.050;2023-04-21T10:31:18;101706.31;;;17.21;48.42
23574;BME280;11965;53.640;10.050;2023-04-21T10:34:14;101701.34;;;17.23;44.93
23574;BME280;11965;53.640;10.050;2023-04-21T10:36:47;101705.25;;;17.09;46.91
23574;BME280;11965;53.640;10.050;2023-04-21T10:39:25;101695.50;;;17.32;50.08
23574;BME280;11965;53.640;10.050;2023-04-21T10:41:55;101694.00;;;17.36;47.30
23574;BME280;11965;53.640;10.050;2023-04-21T10:44:27;101678.91;;;17.37;46.23
23574;BME280;11965;53.640;10.050;2023-04-21T10:46:58;101685.41;;;17.31;46.76
23574;BME280;11965;53.640;10.050;2023-04-21T10:49:26;101686.00;;;17.33;46.19
23574;BME280;11965;53.640;10.050;2023-04-21T10:52:06;101693.31;;;17.47;46.74
23574;BME280;11965;53.640;10.050;2023-04-21T10:54:41;101671.19;;;17.26;45.71
23574;BME280;11965;53.640;10.050;2023-04-21T10:57:12;101677.44;;;17.28;46.97
23574;BME280;11965;53.640;10.050;2023-04-21T10:59:41;101662.53;;;17.34;48.42
23574;BME280;11965;53.640;10.050;2023-04-21T11:02:11;101664.44;;;17.47;46.18
23574;BME280;11965;53.640;10.050;2023-04-21T11:04:39;101661.19;;;17.43;47.66
23574;BME280;11965;53.640;10.050;2023-04-21T11:07:10;101661.00;;;17.38;46.06
23574;BME280;11965;53.640;10.050;2023-04-21T11:09:38;101660.13;;;17.37;46.84
23574;BME280;11965;53.640;10.050;2023-04-21T11:12:07;101658.34;;;17.63;46.84
23574;BME280;11965;53.640;10.050;2023-04-21T11:14:36;101653.13;;;17.66;47.80
23574;BME280;11965;53.640;10.050;2023-04-21T11:17:10;101649.28;;;17.61;52.93
23574;BME280;11965;53.640;10.050;2023-04-21T11:19:38;101648.81;;;17.71;52.23
23574;BME280;11965;53.640;10.050;2023-04-21T11:22:06;101639.94;;;17.80;48.69
23574;BME280;11965;53.640;10.050;2023-04-21T11:24:33;101633.47;;;17.80;50.70
23574;BME280;11965;53.640;10.050;2023-04-21T11:27:01;101640.19;;;17.79;49.73
23574;BME280;11965;53.640;10.050;2023-04-21T11:29:28;101645.41;;;18.07;46.92
23574;BME280;11965;53.640;10.050;2023-04-21T11:31:55;101630.16;;;17.96;50.37
23574;BME280;11965;53.640;10.050;2023-04-21T11:34:25;101627.59;;;17.95;51.19
23574;BME280;11965;53.640;10.050;2023-04-21T11:36:52;101621.88;;;18.08;50.70
23574;BME280;11965;53.640;10.050;2023-04-21T11:39:20;101620.91;;;18.27;48.13
23574;BME280;11965;53.640;10.050;2023-04-21T11:41:49;101618.56;;;18.18;48.22
23574;BME280;11965;53.640;10.050;2023-04-21T11:44:30;101610.06;;;18.31;48.10
23574;BME280;11965;53.640;10.050;2023-04-21T11:46:57;101600.13;;;18.35;47.80
23574;BME280;11965;53.640;10.050;2023-04-21T11:49:26;101613.53;;;18.26;49.56
23574;BME280;11965;53.640;10.050;2023-04-21T11:51:55;101590.53;;;18.18;50.28
23574;BME280;11965;53.640;10.050;2023-04-21T11:54:22;101588.53;;;18.25;48.82
23574;BME280;11965;53.640;10.050;2023-04-21T11:56:50;101594.28;;;18.05;51.58
23574;BME280;11965;53.640;10.050;2023-04-21T11:59:21;101585.41;;;18.08;48.90
23574;BME280;11965;53.640;10.050;2023-04-21T12:01:50;101597.66;;;17.82;49.63
23574;BME280;11965;53.640;10.050;2023-04-21T12:04:19;101600.78;;;17.99;50.04
23574;BME280;11965;53.640;10.050;2023-04-21T12:06:56;101589.38;;;18.00;48.68
23574;BME280;11965;53.640;10.050;2023-04-21T12:09:24;101585.53;;;17.88;49.48
23574;BME280;11965;53.640;10.050;2023-04-21T12:11:53;101590.66;;;17.98;49.77
23574;BME280;11965;53.640;10.050;2023-04-21T12:14:23;101581.75;;;18.07;49.51
23574;BME280;11965;53.640;10.050;2023-04-21T12:16:54;101577.81;;;18.15;48.70
23574;BME280;11965;53.640;10.050;2023-04-21T12:19:22;101572.59;;;18.19;48.28
23574;BME280;11965;53.640;10.050;2023-04-21T12:21:55;101573.66;;;18.24;48.64
23574;BME280;11965;53.640;10.050;2023-04-21T12:24:22;101570.84;;;18.24;49.23
23574;BME280;11965;53.640;10.050;2023-04-21T12:26:49;101558.91;;;18.29;48.62
23574;BME280;11965;53.640;10.050;2023-04-21T12:29:16;101566.53;;;18.22;48.80
23574;BME280;11965;53.640;10.050;2023-04-21T12:31:43;101562.91;;;18.15;48.70
23574;BME280;11965;53.640;10.050;2023-04-21T12:34:10;101558.56;;;18.19;47.17
23574;BME280;11965;53.640;10.050;2023-04-21T12:36:37;101558.31;;;18.27;48.11
23574;BME280;11965;53.640;10.050;2023-04-21T12:39:05;101549.53;;;18.42;47.74
23574;BME280;11965;53.640;10.050;2023-04-21T12:41:32;101540.50;;;18.58;46.55
23574;BME280;11965;53.640;10.050;2023-04-21T12:44:02;101542.34;;;18.71;47.82
23574;BME280;11965;53.640;10.050;2023-04-21T12:46:31;101539.78;;;18.88;46.26